createdAt,value
2023-04-09T00:01:22.972Z,100.00
2023-04-09T00:03:51.375Z,100.00
2023-04-09T00:06:21.043Z,100.00
2023-04-09T00:08:49.400Z,100.00
2023-04-09T00:11:17.672Z,100.00
2023-04-09T00:13:45.952Z,100.00
2023-04-09T00:16:14.250Z,100.00
2023-04-09T00:18:42.516Z,100.00
2023-04-09T00:21:10.691Z,100.00
2023-04-09T00:23:40.599Z,100.00
2023-04-09T00:26:08.787Z,100.00
2023-04-09T00:28:37.512Z,100.00
2023-04-09T00:31:05.754Z,100.00
2023-04-09T00:33:33.938Z,100.00
2023-04-09T00:36:02.154Z,100.00
2023-04-09T00:38:30.533Z,100.00
2023-04-09T00:41:00.094Z,100.00
2023-04-09T00:43:28.319Z,100.00
2023-04-09T00:45:56.652Z,100.00
2023-04-09T00:48:24.944Z,100.00
2023-04-09T00:50:53.259Z,100.00
2023-04-09T00:53:21.749Z,100.00
2023-04-09T00:55:50.329Z,100.00
2023-04-09T00:58:20.197Z,100.00
2023-04-09T01:00:48.524Z,100.00
2023-04-09T01:03:17.182Z,100.00
2023-04-09T01:05:54.476Z,100.00
2023-04-09T01:08:39.906Z,100.00
2023-04-09T01:11:22.350Z,100.00
2023-04-09T01:14:03.018Z,100.00
2023-04-09T01:16:33.795Z,100.00
2023-04-09T01:19:10.895Z,100.00
2023-04-09T01:21:42.113Z,100.00
2023-04-09T01:24:22.736Z,100.00
2023-04-09T01:27:03.075Z,100.00
2023-04-09T01:29:36.698Z,100.00
2023-04-09T01:32:06.891Z,100.00
2023-04-09T01:34:35.919Z,100.00
2023-04-09T01:37:05.585Z,100.00
2023-04-09T01:39:34.072Z,100.00
2023-04-09T01:42:03.853Z,100.00
2023-04-09T01:44:34.420Z,100.00
2023-04-09T01:47:03.700Z,100.00
2023-04-09T01:49:32.207Z,100.00
2023-04-09T01:52:00.942Z,100.00
2023-04-09T01:54:29.122Z,100.00
2023-04-09T01:56:59.259Z,100.00
2023-04-09T01:59:27.547Z,100.00
2023-04-09T02:02:04.511Z,100.00
2023-04-09T02:04:38.274Z,100.00
2023-04-09T02:07:29.291Z,100.00
2023-04-09T02:10:00.634Z,100.00
2023-04-09T02:12:31.284Z,100.00
2023-04-09T02:15:02.087Z,100.00
2023-04-09T02:17:31.740Z,100.00
2023-04-09T02:19:59.998Z,100.00
2023-04-09T02:22:28.160Z,100.00
2023-04-09T02:24:56.363Z,100.00
2023-04-09T02:27:24.560Z,100.00
2023-04-09T02:29:52.757Z,100.00
2023-04-09T02:32:20.948Z,100.00
2023-04-09T02:34:50.506Z,100.00
2023-04-09T02:37:19.365Z,100.00
2023-04-09T02:39:47.520Z,100.00
2023-04-09T02:42:15.721Z,100.00
2023-04-09T02:44:44.313Z,100.00
2023-04-09T02:47:12.554Z,100.00
2023-04-09T02:49:40.761Z,100.00
2023-04-09T02:52:11.930Z,100.00
2023-04-09T02:54:40.105Z,100.00
2023-04-09T02:57:08.294Z,100.00
2023-04-09T02:59:39.042Z,100.00
2023-04-09T03:02:07.384Z,100.00
2023-04-09T03:04:35.662Z,100.00
2023-04-09T03:07:03.982Z,100.00
2023-04-09T03:09:33.515Z,100.00
2023-04-09T03:12:02.151Z,100.00
2023-04-09T03:14:30.401Z,100.00
2023-04-09T03:16:58.636Z,100.00
2023-04-09T03:19:27.142Z,100.00
2023-04-09T03:21:55.323Z,100.00
2023-04-09T03:24:23.494Z,100.00
2023-04-09T03:26:53.060Z,100.00
2023-04-09T03:29:21.337Z,100.00
2023-04-09T03:31:49.508Z,100.00
2023-04-09T03:34:17.843Z,100.00
2023-04-09T03:36:46.084Z,100.00
2023-04-09T03:39:14.238Z,100.00
2023-04-09T03:41:42.409Z,100.00
2023-04-09T03:44:11.905Z,100.00
2023-04-09T03:46:40.194Z,100.00
2023-04-09T03:49:08.700Z,100.00
2023-04-09T03:51:36.902Z,100.00
2023-04-09T03:54:05.223Z,100.00
2023-04-09T03:56:33.388Z,100.00
2023-04-09T03:59:01.547Z,100.00
2023-04-09T04:01:31.119Z,100.00
2023-04-09T04:03:59.397Z,100.00
2023-04-09T04:06:28.265Z,100.00
2023-04-09T04:08:56.747Z,100.00
2023-04-09T04:11:24.944Z,100.00
2023-04-09T04:13:53.202Z,100.00
2023-04-09T04:16:21.409Z,100.00
2023-04-09T04:18:51.364Z,100.00
2023-04-09T04:21:19.763Z,100.00
2023-04-09T04:23:47.977Z,100.00
2023-04-09T04:26:16.200Z,100.00
2023-04-09T04:28:44.451Z,100.00
2023-04-09T04:31:13.731Z,100.00
2023-04-09T04:33:43.489Z,100.00
2023-04-09T04:36:14.848Z,100.00
2023-04-09T04:38:43.638Z,100.00
2023-04-09T04:41:12.862Z,100.00
2023-04-09T04:43:42.199Z,100.00
2023-04-09T04:46:10.411Z,100.00
2023-04-09T04:48:38.626Z,100.00
2023-04-09T04:51:07.017Z,100.00
2023-04-09T04:53:36.621Z,100.00
2023-04-09T04:56:05.352Z,100.00
2023-04-09T04:58:33.620Z,100.00
2023-04-09T05:01:01.872Z,100.00
2023-04-09T05:03:30.211Z,100.00
2023-04-09T05:05:58.490Z,100.00
2023-04-09T05:08:26.780Z,100.00
2023-04-09T05:10:56.712Z,100.00
2023-04-09T05:13:25.138Z,100.00
2023-04-09T05:15:53.336Z,100.00
2023-04-09T05:18:21.692Z,100.00
2023-04-09T05:20:49.861Z,100.00
2023-04-09T05:23:18.067Z,100.00
2023-04-09T05:25:46.266Z,100.00
2023-04-09T05:28:16.840Z,100.00
2023-04-09T05:30:48.307Z,100.00
2023-04-09T05:33:16.591Z,100.00
2023-04-09T05:35:44.816Z,100.00
2023-04-09T05:38:13.786Z,100.00
2023-04-09T05:40:42.333Z,100.00
2023-04-09T05:43:10.795Z,100.00
2023-04-09T05:45:40.629Z,100.00
2023-04-09T05:48:08.965Z,100.00
2023-04-09T05:50:47.544Z,100.00
2023-04-09T05:53:23.020Z,100.00
2023-04-09T05:55:51.288Z,100.00
2023-04-09T05:58:19.927Z,97.87
2023-04-09T06:00:51.612Z,95.51
2023-04-09T06:03:20.626Z,94.78
2023-04-09T06:05:49.287Z,91.88
2023-04-09T06:08:17.608Z,93.03
2023-04-09T06:10:45.849Z,91.70
2023-04-09T06:13:14.280Z,92.64
2023-04-09T06:15:42.765Z,92.88
2023-04-09T06:18:12.390Z,90.16
2023-04-09T06:20:41.564Z,88.65
2023-04-09T06:23:09.803Z,88.25
2023-04-09T06:25:38.067Z,87.07
2023-04-09T06:28:06.700Z,86.96
2023-04-09T06:30:37.110Z,84.94
2023-04-09T06:33:05.473Z,83.42
2023-04-09T06:35:35.178Z,81.68
2023-04-09T06:38:03.377Z,76.02
2023-04-09T06:40:31.919Z,74.57
2023-04-09T06:43:00.783Z,73.45
2023-04-09T06:45:29.268Z,73.66
2023-04-09T06:47:57.814Z,73.41
2023-04-09T06:50:26.409Z,72.83
2023-04-09T06:52:56.322Z,71.74
2023-04-09T06:55:24.795Z,71.06
2023-04-09T06:57:52.986Z,70.58
2023-04-09T07:00:23.006Z,69.60
2023-04-09T07:02:52.504Z,68.90
2023-04-09T07:05:21.173Z,68.77
2023-04-09T07:07:49.385Z,68.67
2023-04-09T07:10:19.233Z,66.87
2023-04-09T07:12:47.458Z,65.44
2023-04-09T07:15:15.684Z,65.86
2023-04-09T07:17:44.570Z,64.82
2023-04-09T07:20:13.645Z,64.35
2023-04-09T07:22:41.900Z,62.43
2023-04-09T07:25:10.818Z,65.15
2023-04-09T07:27:40.398Z,67.36
2023-04-09T07:30:10.719Z,66.90
2023-04-09T07:32:39.056Z,63.90
2023-04-09T07:35:11.315Z,63.04
2023-04-09T07:37:39.646Z,62.84
2023-04-09T07:40:09.746Z,62.96
2023-04-09T07:42:40.655Z,64.23
2023-04-09T07:45:10.182Z,60.76
2023-04-09T07:47:40.869Z,63.13
2023-04-09T07:50:11.390Z,60.55
2023-04-09T07:52:39.679Z,66.61
2023-04-09T07:55:08.539Z,66.62
2023-04-09T07:57:36.885Z,60.71
2023-04-09T08:00:08.459Z,63.48
2023-04-09T08:02:36.800Z,68.05
2023-04-09T08:05:05.569Z,65.58
2023-04-09T08:07:33.768Z,61.79
2023-04-09T08:10:02.055Z,68.65
2023-04-09T08:12:30.329Z,63.88
2023-04-09T08:14:58.524Z,59.09
2023-04-09T08:17:28.483Z,65.29
2023-04-09T08:19:56.788Z,61.60
2023-04-09T08:22:24.998Z,59.51
2023-04-09T08:24:53.892Z,61.60
2023-04-09T08:27:22.166Z,65.23
2023-04-09T08:29:50.434Z,65.76
2023-04-09T08:32:18.807Z,57.08
2023-04-09T08:34:48.446Z,56.30
2023-04-09T08:37:16.735Z,57.04
2023-04-09T08:39:44.960Z,57.94
2023-04-09T08:42:16.205Z,65.86
2023-04-09T08:44:45.334Z,56.95
2023-04-09T08:47:14.203Z,62.42
2023-04-09T08:49:42.436Z,58.92
2023-04-09T08:52:12.112Z,56.86
2023-04-09T08:54:40.401Z,57.21
2023-04-09T08:57:08.798Z,62.15
2023-04-09T08:59:37.928Z,55.63
2023-04-09T09:02:09.919Z,55.73
2023-04-09T09:04:49.051Z,54.90
2023-04-09T09:07:19.206Z,54.60
2023-04-09T09:09:55.664Z,62.32
2023-04-09T09:12:38.465Z,71.04
2023-04-09T09:15:26.289Z,56.19
2023-04-09T09:17:56.982Z,67.47
2023-04-09T09:20:27.575Z,61.27
2023-04-09T09:22:57.842Z,61.62
2023-04-09T09:25:26.798Z,57.01
2023-04-09T09:27:55.852Z,54.99
2023-04-09T09:30:26.188Z,59.16
2023-04-09T09:32:55.703Z,61.69
2023-04-09T09:35:23.988Z,64.40
2023-04-09T09:38:05.306Z,55.88
2023-04-09T09:40:33.685Z,57.65
2023-04-09T09:43:01.953Z,65.15
2023-04-09T09:45:31.421Z,54.18
2023-04-09T09:47:59.987Z,57.12
2023-04-09T09:50:32.429Z,51.53
2023-04-09T09:53:07.755Z,54.37
2023-04-09T09:55:40.451Z,56.03
2023-04-09T09:58:18.022Z,61.87
2023-04-09T10:00:48.947Z,53.60
2023-04-09T10:03:23.439Z,53.42
2023-04-09T10:05:53.492Z,52.86
2023-04-09T10:08:23.763Z,51.31
2023-04-09T10:10:53.784Z,52.87
2023-04-09T10:13:32.348Z,47.37
2023-04-09T10:16:01.750Z,52.96
2023-04-09T10:18:33.469Z,49.66
2023-04-09T10:21:11.371Z,62.58
2023-04-09T10:23:44.320Z,48.78
2023-04-09T10:26:12.605Z,53.12
2023-04-09T10:28:41.271Z,54.42
2023-04-09T10:31:09.712Z,61.25
2023-04-09T10:33:39.679Z,51.08
2023-04-09T10:36:13.457Z,48.38
2023-04-09T10:38:48.744Z,54.26
2023-04-09T10:41:23.152Z,51.26
2023-04-09T10:43:52.002Z,51.16
2023-04-09T10:46:31.477Z,45.78
2023-04-09T10:49:13.765Z,47.87
2023-04-09T10:51:45.126Z,50.86
2023-04-09T10:54:39.949Z,48.63
2023-04-09T10:57:17.986Z,48.03
2023-04-09T10:59:48.914Z,45.73
2023-04-09T11:03:06.276Z,48.23
2023-04-09T11:05:36.520Z,42.29
2023-04-09T11:08:10.845Z,46.49
2023-04-09T11:10:44.576Z,47.45
2023-04-09T11:13:13.660Z,45.35
2023-04-09T11:15:42.399Z,51.62
2023-04-09T11:18:12.126Z,47.88
2023-04-09T11:20:40.946Z,59.88
2023-04-09T11:23:09.384Z,55.85
2023-04-09T11:25:37.583Z,52.06
2023-04-09T11:28:08.590Z,45.85
2023-04-09T11:30:37.528Z,45.42
2023-04-09T11:33:05.875Z,49.11
2023-04-09T11:35:37.302Z,51.52
2023-04-09T11:38:09.018Z,47.60
2023-04-09T11:40:43.486Z,50.58
2023-04-09T11:43:13.069Z,51.37
2023-04-09T11:45:41.636Z,45.36
2023-04-09T11:48:10.096Z,51.12
2023-04-09T11:50:38.712Z,54.56
2023-04-09T11:53:18.889Z,48.14
2023-04-09T11:55:51.139Z,56.75
2023-04-09T11:58:24.629Z,48.59
2023-04-09T12:00:56.111Z,55.67
2023-04-09T12:03:32.568Z,48.18
2023-04-09T12:06:03.789Z,48.03
2023-04-09T12:08:34.659Z,48.25
2023-04-09T12:11:11.285Z,55.90
2023-04-09T12:13:43.459Z,50.93
2023-04-09T12:16:12.453Z,45.10
2023-04-09T12:18:41.480Z,48.20
2023-04-09T12:21:09.722Z,49.05
2023-04-09T12:23:38.116Z,48.94
2023-04-09T12:26:06.530Z,45.47
2023-04-09T12:28:34.767Z,46.43
2023-04-09T12:31:04.407Z,46.33
2023-04-09T12:33:34.022Z,45.71
2023-04-09T12:36:02.486Z,47.57
2023-04-09T12:38:31.178Z,45.07
2023-04-09T12:40:59.965Z,46.39
2023-04-09T12:43:28.317Z,45.30
2023-04-09T12:45:56.572Z,48.33
2023-04-09T12:48:26.510Z,44.39
2023-04-09T12:50:54.752Z,50.67
2023-04-09T12:53:22.984Z,46.46
2023-04-09T12:55:51.216Z,47.51
2023-04-09T12:58:19.412Z,47.14
2023-04-09T13:00:47.707Z,45.62
2023-04-09T13:03:17.053Z,46.78
2023-04-09T13:05:47.296Z,47.51
2023-04-09T13:08:16.234Z,47.49
2023-04-09T13:10:44.609Z,57.43
2023-04-09T13:13:13.040Z,50.59
2023-04-09T13:15:43.500Z,46.23
2023-04-09T13:18:11.842Z,50.37
2023-04-09T13:20:40.427Z,57.44
2023-04-09T13:23:10.002Z,48.51
2023-04-09T13:25:38.281Z,45.25
2023-04-09T13:28:06.549Z,56.58
2023-04-09T13:30:34.860Z,53.02
2023-04-09T13:33:03.151Z,48.53
2023-04-09T13:35:32.208Z,45.53
2023-04-09T13:38:00.927Z,51.42
2023-04-09T13:40:30.569Z,47.64
2023-04-09T13:42:58.767Z,64.94
2023-04-09T13:45:26.983Z,61.18
2023-04-09T13:47:55.217Z,63.42
2023-04-09T13:50:23.496Z,50.75
2023-04-09T13:52:51.719Z,54.66
2023-04-09T13:55:20.161Z,46.18
2023-04-09T13:57:49.737Z,48.96
2023-04-09T14:00:19.848Z,47.39
2023-04-09T14:02:48.174Z,46.69
2023-04-09T14:05:16.590Z,51.93
2023-04-09T14:07:44.832Z,51.87
2023-04-09T14:10:13.207Z,48.16
2023-04-09T14:12:41.428Z,51.03
2023-04-09T14:15:11.957Z,50.02
2023-04-09T14:17:40.830Z,49.63
2023-04-09T14:20:10.368Z,52.11
2023-04-09T14:22:38.909Z,48.46
2023-04-09T14:25:08.624Z,52.63
2023-04-09T14:27:37.192Z,55.08
2023-04-09T14:30:07.822Z,49.62
2023-04-09T14:32:37.477Z,54.70
2023-04-09T14:35:06.609Z,58.40
2023-04-09T14:37:34.814Z,48.05
2023-04-09T14:40:03.060Z,63.43
2023-04-09T14:42:31.867Z,66.60
2023-04-09T14:45:00.284Z,56.43
2023-04-09T14:47:28.656Z,58.11
2023-04-09T14:49:58.269Z,55.63
2023-04-09T14:52:27.581Z,51.61
2023-04-09T14:54:56.081Z,49.49
2023-04-09T14:57:24.501Z,66.13
2023-04-09T14:59:52.695Z,51.97
2023-04-09T15:02:21.072Z,63.89
2023-04-09T15:04:49.436Z,51.38
2023-04-09T15:07:19.031Z,55.19
2023-04-09T15:09:47.224Z,54.23
2023-04-09T15:12:15.626Z,60.58
2023-04-09T15:14:43.815Z,58.46
2023-04-09T15:17:12.071Z,49.14
2023-04-09T15:19:40.316Z,48.02
2023-04-09T15:22:08.528Z,50.79
2023-04-09T15:24:38.082Z,49.77
2023-04-09T15:27:06.455Z,56.74
2023-04-09T15:29:34.927Z,51.52
2023-04-09T15:32:03.688Z,46.97
2023-04-09T15:34:31.983Z,49.66
2023-04-09T15:37:00.268Z,56.95
2023-04-09T15:39:29.202Z,50.73
2023-04-09T15:41:58.972Z,49.21
2023-04-09T15:44:27.431Z,49.81
2023-04-09T15:46:55.898Z,51.76
2023-04-09T15:49:24.706Z,48.21
2023-04-09T15:51:52.945Z,60.81
2023-04-09T15:54:21.200Z,50.27
2023-04-09T15:56:49.913Z,53.33
2023-04-09T15:59:19.467Z,53.18
2023-04-09T16:01:48.165Z,66.67
2023-04-09T16:04:16.450Z,48.58
2023-04-09T16:06:44.724Z,53.39
2023-04-09T16:09:12.989Z,60.83
2023-04-09T16:11:41.222Z,54.35
2023-04-09T16:14:10.207Z,48.40
2023-04-09T16:16:39.810Z,51.81
2023-04-09T16:19:08.032Z,59.19
2023-04-09T16:21:36.849Z,51.84
2023-04-09T16:24:05.214Z,61.82
2023-04-09T16:26:33.444Z,61.05
2023-04-09T16:29:04.098Z,55.21
2023-04-09T16:31:32.413Z,55.22
2023-04-09T16:34:02.506Z,54.61
2023-04-09T16:36:33.574Z,54.30
2023-04-09T16:39:01.781Z,54.45
2023-04-09T16:41:30.099Z,51.02
2023-04-09T16:43:58.315Z,52.29
2023-04-09T16:46:26.647Z,54.98
2023-04-09T16:48:55.076Z,51.58
2023-04-09T16:51:24.827Z,58.60
2023-04-09T16:53:53.016Z,51.75
2023-04-09T16:56:21.247Z,53.74
2023-04-09T16:58:49.465Z,52.00
2023-04-09T17:01:17.801Z,56.05
2023-04-09T17:03:46.201Z,55.45
2023-04-09T17:06:14.488Z,56.23
2023-04-09T17:08:44.068Z,66.32
2023-04-09T17:11:16.196Z,53.90
2023-04-09T17:13:45.000Z,54.59
2023-04-09T17:16:14.364Z,61.64
2023-04-09T17:18:42.649Z,67.00
2023-04-09T17:21:10.936Z,53.33
2023-04-09T17:23:39.182Z,61.31
2023-04-09T17:26:08.884Z,66.54
2023-04-09T17:28:37.183Z,51.37
2023-04-09T17:31:13.118Z,63.13
2023-04-09T17:33:41.732Z,65.44
2023-04-09T17:36:10.105Z,65.78
2023-04-09T17:38:38.335Z,64.65
2023-04-09T17:41:08.513Z,55.86
2023-04-09T17:43:37.161Z,65.21
2023-04-09T17:46:07.443Z,70.97
2023-04-09T17:48:35.833Z,63.76
2023-04-09T17:51:04.108Z,61.11
2023-04-09T17:53:32.355Z,64.46
2023-04-09T17:56:03.035Z,60.14
2023-04-09T17:58:32.779Z,72.50
2023-04-09T18:01:01.327Z,53.33
2023-04-09T18:03:29.846Z,72.98
2023-04-09T18:05:58.231Z,58.42
2023-04-09T18:08:26.685Z,61.13
2023-04-09T18:11:10.968Z,62.11
2023-04-09T18:13:42.168Z,62.81
2023-04-09T18:16:12.115Z,62.11
2023-04-09T18:18:41.297Z,64.53
2023-04-09T18:21:09.804Z,63.30
2023-04-09T18:23:39.524Z,70.56
2023-04-09T18:26:07.864Z,60.63
2023-04-09T18:28:36.139Z,69.86
2023-04-09T18:31:06.398Z,71.26
2023-04-09T18:33:34.675Z,62.92
2023-04-09T18:36:03.353Z,72.30
2023-04-09T18:38:31.677Z,61.52
2023-04-09T18:41:01.231Z,71.76
2023-04-09T18:43:29.509Z,73.31
2023-04-09T18:45:58.211Z,55.85
2023-04-09T18:48:27.862Z,62.09
2023-04-09T18:50:56.059Z,74.71
2023-04-09T18:53:25.096Z,67.81
2023-04-09T18:55:53.311Z,73.61
2023-04-09T18:58:21.519Z,70.49
2023-04-09T19:00:51.506Z,73.22
2023-04-09T19:03:20.260Z,75.03
2023-04-09T19:05:49.951Z,74.49
2023-04-09T19:08:18.207Z,61.29
2023-04-09T19:10:47.556Z,74.48
2023-04-09T19:13:16.880Z,74.00
2023-04-09T19:15:45.611Z,73.65
2023-04-09T19:18:13.875Z,70.14
2023-04-09T19:20:42.107Z,71.74
2023-04-09T19:23:11.686Z,74.54
2023-04-09T19:25:39.891Z,73.02
2023-04-09T19:28:08.112Z,67.15
2023-04-09T19:30:36.368Z,72.38
2023-04-09T19:33:04.837Z,74.56
2023-04-09T19:35:35.758Z,75.03
2023-04-09T19:38:05.085Z,72.92
2023-04-09T19:40:34.988Z,74.59
2023-04-09T19:43:03.322Z,73.05
2023-04-09T19:45:31.541Z,67.25
2023-04-09T19:47:59.850Z,74.71
2023-04-09T19:50:28.393Z,74.10
2023-04-09T19:52:57.386Z,74.68
2023-04-09T19:55:25.969Z,74.01
2023-04-09T19:57:55.534Z,74.34
2023-04-09T20:00:23.722Z,73.95
2023-04-09T20:02:52.439Z,73.13
2023-04-09T20:05:21.360Z,74.00
2023-04-09T20:07:49.644Z,74.40
2023-04-09T20:10:18.217Z,74.68
2023-04-09T20:12:48.603Z,74.88
2023-04-09T20:15:20.024Z,74.15
2023-04-09T20:17:49.152Z,71.43
2023-04-09T20:20:19.959Z,74.72
2023-04-09T20:22:56.306Z,74.43
2023-04-09T20:25:25.826Z,74.54
2023-04-09T20:27:55.057Z,71.89
2023-04-09T20:30:24.644Z,73.96
2023-04-09T20:32:52.957Z,74.45
2023-04-09T20:35:21.868Z,74.88
2023-04-09T20:37:50.364Z,74.45
2023-04-09T20:40:18.625Z,74.80
2023-04-09T20:42:46.836Z,71.89
2023-04-09T20:45:15.081Z,74.11
2023-04-09T20:47:44.687Z,75.34
2023-04-09T20:50:13.214Z,74.79
2023-04-09T20:52:41.803Z,73.63
2023-04-09T20:55:10.642Z,74.13
2023-04-09T20:57:38.818Z,73.71
2023-04-09T21:00:09.295Z,74.29
2023-04-09T21:02:38.171Z,73.40
2023-04-09T21:07:43.533Z,74.95
2023-04-09T21:10:12.049Z,75.13
2023-04-09T21:12:40.315Z,75.49
2023-04-09T21:15:10.195Z,73.45
2023-04-09T21:17:38.420Z,75.37
2023-04-09T21:20:09.702Z,75.31
2023-04-09T21:22:37.999Z,75.66
2023-04-09T21:25:07.647Z,75.50
2023-04-09T21:27:36.033Z,75.62
2023-04-09T21:30:04.684Z,75.66
2023-04-09T21:32:32.932Z,75.69
2023-04-09T21:35:01.406Z,75.58
2023-04-09T21:37:32.983Z,75.78
2023-04-09T21:40:01.463Z,74.26
2023-04-09T21:42:31.489Z,75.09
2023-04-09T21:45:01.449Z,75.24
2023-04-09T21:47:29.696Z,75.24
2023-04-09T21:49:58.630Z,75.28
2023-04-09T21:52:26.919Z,75.29
2023-04-09T21:54:56.511Z,75.80
2023-04-09T21:57:24.711Z,75.73
2023-04-09T21:59:53.039Z,75.76
2023-04-09T22:02:21.368Z,75.79
2023-04-09T22:04:49.719Z,76.00
2023-04-09T22:07:17.998Z,75.71
2023-04-09T22:09:46.618Z,75.74
2023-04-09T22:12:16.532Z,75.56
2023-04-09T22:14:45.984Z,75.77
2023-04-09T22:17:14.259Z,75.56
2023-04-09T22:19:42.550Z,75.56
2023-04-09T22:22:13.473Z,75.26
2023-04-09T22:24:41.862Z,74.10
2023-04-09T22:27:10.046Z,75.56
2023-04-09T22:29:39.604Z,75.55
2023-04-09T22:32:07.808Z,75.37
2023-04-09T22:34:36.030Z,75.13
2023-04-09T22:37:04.229Z,75.64
2023-04-09T22:39:32.454Z,75.80
2023-04-09T22:42:01.816Z,75.67
2023-04-09T22:44:30.205Z,75.55
2023-04-09T22:46:59.948Z,75.45
2023-04-09T22:49:28.344Z,75.79
2023-04-09T22:51:56.538Z,75.87
2023-04-09T22:54:24.923Z,76.03
2023-04-09T22:56:53.116Z,75.75
2023-04-09T22:59:25.091Z,75.72
2023-04-09T23:01:55.864Z,75.73
2023-04-09T23:04:25.566Z,75.55
2023-04-09T23:06:54.590Z,75.43
2023-04-09T23:09:22.831Z,75.53
2023-04-09T23:11:51.230Z,75.66
2023-04-09T23:14:19.550Z,75.51
2023-04-09T23:16:47.789Z,75.07
2023-04-09T23:19:16.056Z,75.45
2023-04-09T23:21:45.710Z,75.30
2023-04-09T23:24:13.908Z,75.62
2023-04-09T23:26:42.142Z,75.60
2023-04-09T23:29:10.443Z,75.51
2023-04-09T23:31:38.698Z,75.25
2023-04-09T23:34:06.919Z,75.19
2023-04-09T23:36:35.163Z,75.60
2023-04-09T23:39:04.965Z,75.42
2023-04-09T23:41:33.209Z,75.24
2023-04-09T23:44:01.465Z,72.88
2023-04-09T23:46:30.625Z,75.04
2023-04-09T23:48:58.830Z,75.20
2023-04-09T23:51:27.133Z,74.74
2023-04-09T23:53:55.575Z,75.04
2023-04-09T23:56:25.356Z,74.88
2023-04-09T23:58:53.543Z,72.60
